This is the latest recevied weather packets stored in our database for station/object LKCS. If no packets are shown the sender has not sent any weather packets the latest 10 day(s).
| Time | Temp. | Humidity | Pressure | Rain* | Wind** | Luminosity | Snow |
|---|---|---|---|---|---|---|---|
| 1787551372 | 11.11° C | 87% | 1023 hPa | - | - | - | - |
| 1787549551 | 10° C | 87% | 1023 hPa | - | - | - | - |
| 1787547794 | 7.78° C | 100% | 1023 hPa | - | - | - | - |
| 1787545985 | 7.78° C | 93% | 1023 hPa | - | - | - | - |
| 1787544185 | 8.89° C | 93% | 1023 hPa | - | - | - | - |
| 1787542385 | 8.89° C | 87% | 1023 hPa | - | - | - | - |
| 1787540563 | 10° C | 87% | 1023 hPa | - | - | - | - |
| 1787538785 | 10° C | 87% | 1023 hPa | - | - | - | - |
| 1787536963 | 11.11° C | 81% | 1022 hPa | - | - | - | - |
| 1787535151 | 12.78° C | 71% | 1023 hPa | - | - | - | - |
| 1787533386 | 12.78° C | 76% | 1023 hPa | - | - | - | - |
| 1787531550 | 12.78° C | 76% | 1023 hPa | - | - | - | - |
| 1787529787 | 12.78° C | 76% | 1023 hPa | - | - | - | - |
| 1787527985 | 13.89° C | 71% | 1022 hPa | - | - | - | - |
| 1787526160 | 12.22° C | 76% | 1022 hPa | - | - | - | - |
| 1787524351 | 12.78° C | 76% | 1022 hPa | - | - | - | - |
| 1787522586 | 12.78° C | 82% | 1022 hPa | - | - | - | - |
| 1787520785 | 13.89° C | 76% | 1022 hPa | - | - | - | - |
| 1787518986 | 13.89° C | 76% | 1022 hPa | - | - | - | - |
| 1787517184 | 13.89° C | 76% | 1022 hPa | - | - | - | - |
| 1787515366 | 15° C | 72% | 1022 hPa | - | - | - | - |
| 1787513584 | 15° C | 72% | 1022 hPa | - | - | - | - |
| 1787511766 | 15° C | 72% | 1022 hPa | - | - | - | - |
| 1787509958 | 18.89° C | 52% | 1021 hPa | - | - | - | - |
| 1787508159 | 18.89° C | 48% | 1021 hPa | - | - | - | - |
* Rain since midnight (hover to see other rain measurements)
** Current wind speed in m/s (hover to see current wind gust speed)